Time;durP1;ratioP1;P1;durP2;ratioP2;P2;SDS_P1;SDS_P2;PMS_P1;PMS_P2;Temp;Humidity;BMP_temperature;BMP_pressure;BME280_temperature;BME280_humidity;BME280_pressure;Samples;Min_cycle;Max_cycle;Signal;HPM_P1;HPM_P2
2022/01/06 00:00:22;;;;;;;14.40;1.70;;;6.60;99.90;;;;;;4891967;29;20186;-85
2022/01/06 00:02:47;;;;;;;13.83;2.10;;;6.50;99.90;;;;;;4880434;29;20659;-86
2022/01/06 00:05:13;;;;;;;14.47;2.27;;;6.30;99.90;;;;;;4880413;29;20273;-80
2022/01/06 00:07:40;;;;;;;19.90;4.03;;;6.10;99.90;;;;;;4887037;29;20245;-80
2022/01/06 00:10:10;;;;;;;10.77;3.03;;;6.10;99.90;;;;;;4889622;29;20198;-80
2022/01/06 00:12:46;;;;;;;14.77;2.83;;;5.90;99.90;;;;;;4897452;29;20610;-80
2022/01/06 00:15:29;;;;;;;15.17;2.13;;;5.80;99.90;;;;;;4891317;29;20174;-79
2022/01/06 00:25:58;;;;;;;18.23;2.40;;;6.10;99.90;;;;;;4893251;29;20173;-79
2022/01/06 00:28:23;;;;;;;10.50;1.40;;;6.10;99.90;;;;;;4895323;29;20173;-78
2022/01/06 00:30:49;;;;;;;14.30;1.97;;;6.10;99.90;;;;;;4894040;29;20189;-80
2022/01/06 00:33:16;;;;;;;10.90;1.80;;;6.20;99.90;;;;;;4887941;29;20178;-80
2022/01/06 00:35:42;;;;;;;12.80;1.70;;;6.10;99.90;;;;;;4891592;29;20208;-79
2022/01/06 00:38:08;;;;;;;12.70;1.97;;;6.10;99.90;;;;;;4892841;29;20549;-79
2022/01/06 00:40:35;;;;;;;12.07;2.37;;;6.10;99.90;;;;;;4880268;29;20272;-80
2022/01/06 00:43:02;;;;;;;9.17;1.90;;;6.20;99.90;;;;;;4880089;29;20170;-79
2022/01/06 00:45:28;;;;;;;8.13;1.53;;;6.20;99.90;;;;;;4880531;29;20151;-79
2022/01/06 00:47:54;;;;;;;11.70;1.67;;;6.20;99.90;;;;;;4879954;29;20209;-80
2022/01/06 00:50:19;;;;;;;13.97;2.47;;;6.30;99.90;;;;;;4879859;29;20551;-80
2022/01/06 00:52:45;;;;;;;15.80;2.50;;;6.30;99.90;;;;;;4878637;29;20624;-80
2022/01/06 00:55:10;;;;;;;11.97;2.80;;;6.30;99.90;;;;;;4879904;29;20161;-79
2022/01/06 00:57:36;;;;;;;11.70;3.10;;;6.30;99.90;;;;;;4879689;29;20616;-79
2022/01/06 01:00:03;;;;;;;43.37;23.03;;;6.20;99.90;;;;;;4879948;29;20166;-79
2022/01/06 01:02:29;;;;;;;12.13;2.80;;;6.00;99.90;;;;;;4879705;29;20196;-79
2022/01/06 01:04:54;;;;;;;9.67;2.87;;;5.90;99.90;;;;;;4879353;29;20248;-80
2022/01/06 01:07:20;;;;;;;34.03;19.83;;;5.80;99.90;;;;;;4879562;29;20198;-80
2022/01/06 01:09:45;;;;;;;42.43;22.43;;;5.80;99.90;;;;;;4879965;29;20201;-79
2022/01/06 01:12:11;;;;;;;78.17;33.77;;;5.80;99.90;;;;;;4879709;29;20258;-79
2022/01/06 01:14:56;;;;;;;15.10;5.13;;;5.90;99.90;;;;;;4878323;29;20162;-79
2022/01/06 01:17:24;;;;;;;42.83;15.63;;;6.00;99.90;;;;;;4879535;29;20226;-79
2022/01/06 01:19:50;;;;;;;44.10;18.03;;;5.90;99.90;;;;;;4879269;29;20190;-80
2022/01/06 01:22:16;;;;;;;28.43;12.43;;;5.90;99.90;;;;;;4879558;29;20188;-79
2022/01/06 01:24:41;;;;;;;20.57;8.60;;;5.90;99.90;;;;;;4878048;29;20174;-79
2022/01/06 01:27:07;;;;;;;20.93;7.13;;;5.90;99.90;;;;;;4879325;29;20655;-79
2022/01/06 01:29:40;;;;;;;15.80;4.77;;;5.80;99.90;;;;;;4879194;29;20154;-79
2022/01/06 01:32:06;;;;;;;16.00;5.93;;;5.80;99.90;;;;;;4879459;29;20650;-79
2022/01/06 01:34:32;;;;;;;75.63;36.90;;;5.80;99.90;;;;;;4877571;29;20177;-79
2022/01/06 01:36:58;;;;;;;30.50;13.20;;;5.80;99.90;;;;;;4879270;29;20178;-79
2022/01/06 01:39:24;;;;;;;22.40;9.57;;;5.90;99.90;;;;;;4879140;29;20162;-79
2022/01/06 01:41:50;;;;;;;18.40;8.27;;;5.90;99.90;;;;;;4878007;29;20175;-80
2022/01/06 01:44:19;;;;;;;32.10;14.07;;;6.00;99.90;;;;;;4877831;29;20550;-80
2022/01/06 01:46:58;;;;;;;23.27;9.00;;;5.90;99.90;;;;;;4879153;29;20545;-79
2022/01/06 01:51:50;;;;;;;15.47;4.57;;;5.90;99.90;;;;;;4879397;29;20646;-80
2022/01/06 01:54:17;;;;;;;19.97;8.33;;;6.00;99.90;;;;;;4878901;29;20180;-80
2022/01/06 01:56:43;;;;;;;12.73;5.70;;;6.00;99.90;;;;;;4878987;29;20178;-80
2022/01/06 01:59:09;;;;;;;22.57;10.27;;;6.00;99.90;;;;;;4878773;29;20249;-80
2022/01/06 02:01:35;;;;;;;19.17;5.60;;;6.10;99.90;;;;;;4879103;29;20584;-80
2022/01/06 02:04:01;;;;;;;24.13;5.77;;;6.10;99.90;;;;;;4877108;29;20193;-80
2022/01/06 02:06:27;;;;;;;16.10;4.13;;;6.10;99.90;;;;;;4878692;29;20280;-79
2022/01/06 02:08:54;;;;;;;16.40;4.33;;;6.20;99.90;;;;;;4878946;29;20181;-80
2022/01/06 02:11:21;;;;;;;15.77;3.53;;;6.20;99.90;;;;;;4877810;29;20228;-79
2022/01/06 02:13:52;;;;;;;14.47;3.20;;;6.00;99.90;;;;;;4878814;29;20174;-80
2022/01/06 02:16:25;;;;;;;14.30;3.33;;;6.00;99.90;;;;;;4878515;29;20542;-80
2022/01/06 02:18:51;;;;;;;17.93;3.43;;;6.00;99.90;;;;;;4878281;29;20202;-80
2022/01/06 02:21:17;;;;;;;15.93;3.37;;;6.20;99.90;;;;;;4878561;29;20193;-79
2022/01/06 02:23:43;;;;;;;19.17;5.03;;;6.40;99.90;;;;;;4878763;29;20193;-80
2022/01/06 02:26:09;;;;;;;12.10;3.43;;;6.60;99.90;;;;;;4878473;29;20257;-79
2022/01/06 02:28:35;;;;;;;23.80;7.57;;;6.60;99.90;;;;;;4877138;29;20181;-79
2022/01/06 02:31:01;;;;;;;37.33;13.93;;;6.60;99.90;;;;;;4877315;29;20185;-80
2022/01/06 02:33:27;;;;;;;19.27;3.90;;;6.80;99.90;;;;;;4878272;29;20213;-79
2022/01/06 02:35:54;;;;;;;37.17;12.93;;;6.60;99.90;;;;;;4878498;29;20182;-80
2022/01/06 02:38:21;;;;;;;47.53;18.57;;;6.50;99.90;;;;;;4878607;29;20159;-80
2022/01/06 02:40:47;;;;;;;44.00;14.63;;;6.40;99.90;;;;;;4878370;29;20211;-80
2022/01/06 02:43:17;;;;;;;19.27;4.47;;;6.20;99.90;;;;;;4878537;29;20178;-80
2022/01/06 02:45:43;;;;;;;20.03;4.00;;;6.30;99.90;;;;;;4878468;29;20210;-80
2022/01/06 02:48:09;;;;;;;20.63;3.50;;;6.20;99.90;;;;;;4878123;29;20278;-80
2022/01/06 02:50:44;;;;;;;16.33;3.40;;;6.10;99.90;;;;;;4878380;29;20608;-80
2022/01/06 02:53:11;;;;;;;13.50;3.70;;;6.20;99.90;;;;;;4877147;29;20635;-80
2022/01/06 02:55:40;;;;;;;15.77;4.17;;;6.20;99.90;;;;;;4878341;29;20177;-80
2022/01/06 02:58:06;;;;;;;15.93;3.43;;;6.40;99.90;;;;;;4878318;29;20254;-80
2022/01/06 03:00:35;;;;;;;23.63;5.70;;;6.40;99.90;;;;;;4879994;29;20219;-80
2022/01/06 03:03:01;;;;;;;17.03;4.30;;;6.50;99.90;;;;;;4881943;29;20193;-80
2022/01/06 03:05:27;;;;;;;15.27;3.97;;;6.50;99.90;;;;;;4880822;29;20185;-80
2022/01/06 03:07:53;;;;;;;16.67;4.00;;;6.30;99.90;;;;;;4881832;29;20366;-80
2022/01/06 03:10:19;;;;;;;20.47;3.73;;;6.50;99.90;;;;;;4881543;29;20245;-79
2022/01/06 03:12:47;;;;;;;15.60;3.60;;;6.40;99.90;;;;;;4880594;29;20272;-80
2022/01/06 03:15:18;;;;;;;27.17;12.83;;;6.50;99.90;;;;;;4881533;29;20241;-80
2022/01/06 03:17:47;;;;;;;12.90;3.70;;;6.40;99.90;;;;;;4881607;29;20177;-78
2022/01/06 03:20:14;;;;;;;12.83;2.90;;;6.40;99.90;;;;;;4880367;29;20198;-79
2022/01/06 03:22:40;;;;;;;12.10;3.73;;;6.40;99.90;;;;;;4880202;29;20605;-80
2022/01/06 03:25:07;;;;;;;18.63;7.10;;;6.30;99.90;;;;;;4881656;29;20162;-80
2022/01/06 03:27:33;;;;;;;21.53;9.83;;;6.10;99.90;;;;;;4881300;29;20707;-79
2022/01/06 03:29:59;;;;;;;25.07;5.37;;;6.10;99.90;;;;;;4879997;29;20554;-80
2022/01/06 03:32:25;;;;;;;26.50;10.07;;;6.20;99.90;;;;;;4881486;29;20186;-79
2022/01/06 03:34:51;;;;;;;38.23;17.90;;;6.10;99.90;;;;;;4880129;29;20239;-80
2022/01/06 03:37:16;;;;;;;19.23;6.87;;;6.00;99.90;;;;;;4881210;29;20264;-79
2022/01/06 03:39:43;;;;;;;12.83;4.03;;;6.10;99.90;;;;;;4880276;29;20166;-79
2022/01/06 03:42:10;;;;;;;20.20;7.83;;;6.20;99.90;;;;;;4881010;29;20177;-79
2022/01/06 03:44:35;;;;;;;27.50;8.90;;;6.30;99.90;;;;;;4880964;29;20182;-79
2022/01/06 03:47:01;;;;;;;18.33;6.70;;;6.40;99.90;;;;;;4885421;29;20208;-80
2022/01/06 03:49:27;;;;;;;19.60;6.47;;;6.20;99.90;;;;;;4895545;29;20558;-79
2022/01/06 03:51:53;;;;;;;18.87;6.27;;;6.10;99.90;;;;;;4881243;29;20170;-79
2022/01/06 03:54:19;;;;;;;15.00;3.57;;;6.30;99.90;;;;;;4880882;29;20174;-79
2022/01/06 03:56:47;;;;;;;14.10;4.10;;;6.30;99.90;;;;;;4895308;29;20257;-79
2022/01/06 03:59:13;;;;;;;21.17;6.57;;;6.40;99.90;;;;;;4880763;29;20201;-79
2022/01/06 04:01:39;;;;;;;23.50;6.40;;;6.40;99.90;;;;;;4879460;29;20213;-80
2022/01/06 04:04:05;;;;;;;11.97;4.10;;;6.30;99.90;;;;;;4880870;29;20194;-79
2022/01/06 04:06:30;;;;;;;13.77;3.97;;;6.40;99.90;;;;;;4880514;29;20235;-80
2022/01/06 04:08:56;;;;;;;16.13;3.73;;;6.40;99.90;;;;;;4879769;29;20654;-80
2022/01/06 04:11:21;;;;;;;21.20;5.70;;;6.30;99.90;;;;;;4880189;29;20178;-79
2022/01/06 04:13:47;;;;;;;14.60;5.10;;;6.40;99.90;;;;;;4879120;29;20534;-79
2022/01/06 04:16:15;;;;;;;22.63;8.50;;;6.30;99.90;;;;;;4880945;29;20174;-79
2022/01/06 04:18:41;;;;;;;15.10;6.30;;;6.20;99.90;;;;;;4880365;29;20201;-79
2022/01/06 04:21:07;;;;;;;17.67;5.97;;;6.20;99.90;;;;;;4880756;29;20170;-79
2022/01/06 04:23:34;;;;;;;14.07;4.53;;;6.20;99.90;;;;;;4880507;29;20183;-79
2022/01/06 04:25:59;;;;;;;20.47;5.33;;;6.10;99.90;;;;;;4894864;29;20181;-79
2022/01/06 04:28:25;;;;;;;15.27;5.90;;;6.20;99.90;;;;;;4894363;29;20584;-79
2022/01/06 04:30:51;;;;;;;12.30;5.13;;;6.20;99.90;;;;;;4880501;29;20166;-80
2022/01/06 04:33:17;;;;;;;19.80;5.67;;;6.10;99.90;;;;;;4880222;29;20186;-79
2022/01/06 04:35:43;;;;;;;18.03;5.60;;;6.20;99.90;;;;;;4879100;29;20274;-79
2022/01/06 04:38:08;;;;;;;23.47;5.27;;;6.30;99.90;;;;;;4880291;29;20262;-79
2022/01/06 04:40:34;;;;;;;22.70;5.57;;;6.40;99.90;;;;;;4880276;29;20176;-80
2022/01/06 04:43:00;;;;;;;17.13;5.17;;;6.30;99.90;;;;;;4879895;29;20174;-79
2022/01/06 04:45:25;;;;;;;24.93;5.23;;;6.20;99.90;;;;;;4880163;29;20169;-80
2022/01/06 04:47:51;;;;;;;16.50;4.90;;;6.20;99.90;;;;;;4880086;29;20897;-79
2022/01/06 04:50:16;;;;;;;15.23;5.40;;;6.30;99.90;;;;;;4878878;29;20246;-79
2022/01/06 04:52:42;;;;;;;15.10;4.00;;;6.20;99.90;;;;;;4879866;29;20185;-80
2022/01/06 04:55:08;;;;;;;14.07;4.50;;;6.00;99.90;;;;;;4879883;29;20205;-79
2022/01/06 04:57:34;;;;;;;20.97;6.23;;;6.10;99.90;;;;;;4879516;29;20178;-79
2022/01/06 04:59:59;;;;;;;22.20;7.33;;;6.20;99.90;;;;;;4880060;29;20174;-79
2022/01/06 05:02:25;;;;;;;17.00;4.67;;;6.40;99.90;;;;;;4879768;29;20338;-80
2022/01/06 05:04:51;;;;;;;22.00;5.23;;;6.40;99.90;;;;;;4878439;29;20186;-80
2022/01/06 05:07:16;;;;;;;20.30;4.67;;;6.50;99.90;;;;;;4879899;29;20679;-79
2022/01/06 05:09:42;;;;;;;20.03;5.17;;;6.50;99.90;;;;;;4879475;29;20170;-80
2022/01/06 05:12:08;;;;;;;19.70;4.90;;;6.40;99.90;;;;;;4879609;29;20174;-79
2022/01/06 05:14:33;;;;;;;21.90;5.50;;;6.30;99.90;;;;;;4878395;29;20189;-79
2022/01/06 05:17:00;;;;;;;19.77;4.70;;;6.30;99.90;;;;;;4878274;29;20273;-80
2022/01/06 05:19:26;;;;;;;18.57;5.27;;;6.40;99.90;;;;;;4879487;29;20193;-80
2022/01/06 05:21:52;;;;;;;18.87;4.13;;;6.40;99.90;;;;;;4893832;29;20181;-79
2022/01/06 05:24:23;;;;;;;18.30;5.53;;;6.30;99.90;;;;;;4892761;29;20226;-79
2022/01/06 05:26:49;;;;;;;17.57;5.30;;;6.40;99.90;;;;;;4893457;29;20213;-79
2022/01/06 05:29:15;;;;;;;26.23;5.67;;;6.40;99.90;;;;;;4879335;29;20531;-79
2022/01/06 05:31:40;;;;;;;12.77;5.20;;;6.30;99.90;;;;;;4879396;29;20174;-79
2022/01/06 05:34:06;;;;;;;20.33;5.10;;;6.40;99.90;;;;;;4878263;29;20249;-79
2022/01/06 05:36:33;;;;;;;30.90;4.63;;;6.20;99.90;;;;;;4879180;29;20166;-79
2022/01/06 05:38:59;;;;;;;18.07;5.37;;;6.30;99.90;;;;;;4879303;29;20180;-79
2022/01/06 05:41:25;;;;;;;17.93;4.20;;;6.20;99.90;;;;;;4878959;29;20559;-79
2022/01/06 05:43:51;;;;;;;15.37;3.17;;;6.20;99.90;;;;;;4879170;29;20265;-80
2022/01/06 05:46:18;;;;;;;13.47;3.63;;;6.10;99.90;;;;;;4879159;29;20222;-79
2022/01/06 05:48:44;;;;;;;17.53;4.00;;;6.10;99.90;;;;;;4878827;29;20208;-80
2022/01/06 05:51:10;;;;;;;16.90;4.40;;;6.20;99.90;;;;;;4880711;29;20715;-80
2022/01/06 05:53:36;;;;;;;18.43;4.20;;;6.20;99.90;;;;;;4887187;29;20265;-80
2022/01/06 05:56:01;;;;;;;21.20;4.63;;;6.20;99.90;;;;;;4889614;29;20650;-80
2022/01/06 05:58:27;;;;;;;25.37;4.93;;;6.00;99.90;;;;;;4885747;29;20182;-80
2022/01/06 06:00:53;;;;;;;18.57;4.07;;;6.00;99.90;;;;;;4898852;29;20177;-79
2022/01/06 06:03:19;;;;;;;20.07;4.43;;;5.90;99.90;;;;;;4904590;29;20294;-80
2022/01/06 06:05:44;;;;;;;21.27;4.17;;;6.00;99.90;;;;;;4899189;29;20686;-79
2022/01/06 06:08:10;;;;;;;20.73;4.33;;;6.00;99.90;;;;;;4916288;29;20207;-79
2022/01/06 06:10:37;;;;;;;16.43;4.33;;;6.00;99.90;;;;;;4915801;29;20164;-79
2022/01/06 06:13:04;;;;;;;23.20;4.20;;;5.90;99.90;;;;;;4916294;29;20169;-79
2022/01/06 06:15:35;;;;;;;16.57;4.67;;;5.80;99.90;;;;;;4914687;29;20169;-80
2022/01/06 06:18:04;;;;;;;15.53;3.87;;;5.70;99.90;;;;;;4915929;29;20184;-80
2022/01/06 06:20:30;;;;;;;16.47;4.57;;;5.80;99.90;;;;;;4914521;29;20738;-79
2022/01/06 06:22:57;;;;;;;17.30;4.03;;;5.90;99.90;;;;;;4916131;29;20173;-80
2022/01/06 06:25:23;;;;;;;18.97;4.13;;;5.90;99.90;;;;;;4914476;29;20188;-80
2022/01/06 06:27:48;;;;;;;13.43;4.20;;;5.90;99.90;;;;;;4915770;29;20303;-79
2022/01/06 06:30:14;;;;;;;15.63;4.30;;;5.90;99.90;;;;;;4909353;29;20177;-80
2022/01/06 06:32:40;;;;;;;22.13;4.63;;;5.90;99.90;;;;;;4897493;29;20229;-79
2022/01/06 06:35:07;;;;;;;24.33;4.33;;;6.00;99.90;;;;;;4898722;29;20173;-79
2022/01/06 06:37:34;;;;;;;22.13;4.53;;;5.90;99.90;;;;;;4901057;29;20535;-80
2022/01/06 06:40:00;;;;;;;15.50;3.73;;;5.90;99.90;;;;;;4894243;29;20237;-80
2022/01/06 06:42:28;;;;;;;18.13;5.20;;;5.90;99.90;;;;;;4881969;29;20589;-79
2022/01/06 06:44:54;;;;;;;25.60;5.33;;;5.90;99.90;;;;;;4886034;29;20651;-80
2022/01/06 06:47:21;;;;;;;19.70;4.97;;;5.90;99.90;;;;;;4881808;29;20260;-79
2022/01/06 06:49:47;;;;;;;17.73;4.47;;;5.90;99.90;;;;;;4880569;29;20205;-80
2022/01/06 06:52:13;;;;;;;14.93;4.50;;;5.90;99.90;;;;;;4882219;29;20166;-79
2022/01/06 06:54:39;;;;;;;20.47;5.20;;;5.90;99.90;;;;;;4881673;29;20176;-81
2022/01/06 06:57:06;;;;;;;16.87;4.27;;;5.80;99.90;;;;;;4882015;29;20247;-79
2022/01/06 06:59:32;;;;;;;19.07;4.50;;;5.80;99.90;;;;;;4881965;29;20226;-80
2022/01/06 07:01:57;;;;;;;19.63;4.10;;;5.80;99.90;;;;;;4899518;29;20181;-79
2022/01/06 07:04:23;;;;;;;22.13;5.83;;;5.70;99.90;;;;;;4900638;29;20639;-80
2022/01/06 07:06:48;;;;;;;14.03;4.40;;;5.80;99.90;;;;;;4900119;29;20563;-79
2022/01/06 07:09:14;;;;;;;19.00;4.47;;;5.70;99.90;;;;;;4899293;29;20288;-79
2022/01/06 07:11:40;;;;;;;17.43;4.60;;;5.70;99.90;;;;;;4900117;29;20157;-78
2022/01/06 07:14:06;;;;;;;22.50;4.73;;;5.80;99.90;;;;;;4900659;29;20263;-81
2022/01/06 07:16:31;;;;;;;13.47;4.67;;;5.80;99.90;;;;;;4898991;29;20933;-79
2022/01/06 07:18:57;;;;;;;17.57;4.33;;;5.70;99.90;;;;;;4900232;29;20688;-79
2022/01/06 07:21:22;;;;;;;13.47;3.90;;;5.70;99.90;;;;;;4899767;29;20165;-80
2022/01/06 07:23:48;;;;;;;12.63;4.30;;;5.60;99.90;;;;;;4900074;29;20514;-80
2022/01/06 07:26:15;;;;;;;16.97;4.93;;;5.80;99.90;;;;;;4900174;29;20181;-79
2022/01/06 07:28:41;;;;;;;21.53;4.90;;;5.80;99.90;;;;;;4899967;29;20173;-79
2022/01/06 07:31:07;;;;;;;23.90;4.40;;;5.90;99.90;;;;;;4899914;29;20193;-80
2022/01/06 07:33:33;;;;;;;23.03;4.80;;;5.80;99.90;;;;;;4899647;29;20233;-80
2022/01/06 07:36:05;;;;;;;19.20;4.90;;;5.80;99.90;;;;;;4899678;29;20288;-80
2022/01/06 07:38:31;;;;;;;16.20;4.80;;;5.90;99.90;;;;;;4896985;29;20184;-79
2022/01/06 07:40:57;;;;;;;20.60;5.00;;;5.70;99.90;;;;;;4897417;29;20543;-80
2022/01/06 07:43:23;;;;;;;17.27;4.50;;;5.70;99.90;;;;;;4898855;29;20589;-81
2022/01/06 07:45:49;;;;;;;23.57;4.17;;;5.90;99.90;;;;;;4898726;29;20180;-80
2022/01/06 07:48:17;;;;;;;21.10;5.00;;;5.90;99.90;;;;;;4898852;29;20208;-80
2022/01/06 07:50:44;;;;;;;15.67;4.30;;;5.80;99.90;;;;;;4899250;29;20256;-80
2022/01/06 07:53:10;;;;;;;18.07;4.77;;;5.80;99.90;;;;;;4899588;29;20653;-79
2022/01/06 07:55:36;;;;;;;20.40;4.43;;;5.70;99.90;;;;;;4897553;29;20206;-80
2022/01/06 07:58:02;;;;;;;18.53;5.37;;;5.80;99.90;;;;;;4898326;29;20193;-80
2022/01/06 08:00:29;;;;;;;22.03;5.40;;;5.70;99.90;;;;;;4899820;29;20176;-80
2022/01/06 08:02:54;;;;;;;16.83;4.53;;;5.90;99.90;;;;;;4899319;29;20197;-79
2022/01/06 08:05:24;;;;;;;16.10;5.17;;;5.80;99.90;;;;;;4899579;29;20192;-80
2022/01/06 08:07:49;;;;;;;19.47;4.90;;;5.90;99.90;;;;;;4899571;29;20217;-79
2022/01/06 08:10:15;;;;;;;26.27;5.00;;;5.90;99.90;;;;;;4898525;29;20483;-81
2022/01/06 08:12:41;;;;;;;12.70;4.57;;;5.80;99.90;;;;;;4898281;29;20177;-80
2022/01/06 08:15:08;;;;;;;21.20;6.57;;;5.90;99.90;;;;;;4899466;29;20584;-80
2022/01/06 08:17:36;;;;;;;17.27;5.50;;;5.80;99.90;;;;;;4899174;29;20550;-80
2022/01/06 08:20:05;;;;;;;22.00;5.73;;;5.80;99.90;;;;;;4899182;29;20197;-80
2022/01/06 08:22:31;;;;;;;16.67;4.83;;;5.70;99.90;;;;;;4899388;29;20180;-81
2022/01/06 08:24:57;;;;;;;18.97;4.90;;;5.70;99.90;;;;;;4899117;29;20181;-80
2022/01/06 08:27:23;;;;;;;21.30;4.60;;;5.80;99.90;;;;;;4897814;29;20573;-80
2022/01/06 08:29:51;;;;;;;16.17;5.63;;;5.90;99.90;;;;;;4897893;29;20308;-80
2022/01/06 08:32:16;;;;;;;20.00;4.53;;;6.00;99.90;;;;;;4899239;29;20173;-80
2022/01/06 08:34:42;;;;;;;12.37;4.47;;;6.00;99.90;;;;;;4898885;29;20548;-80
2022/01/06 08:37:07;;;;;;;22.23;5.20;;;6.00;99.90;;;;;;4899139;29;20244;-80
2022/01/06 08:39:33;;;;;;;14.87;4.70;;;6.00;99.90;;;;;;4898821;29;20185;-80
2022/01/06 08:41:59;;;;;;;15.93;4.73;;;6.00;99.90;;;;;;4897753;29;20623;-79
2022/01/06 08:44:24;;;;;;;18.37;4.40;;;6.00;99.90;;;;;;4898883;29;20177;-80
2022/01/06 08:46:50;;;;;;;13.87;5.13;;;6.00;99.90;;;;;;4898776;29;20589;-81
2022/01/06 08:49:16;;;;;;;18.03;4.87;;;6.00;99.90;;;;;;4897337;29;20694;-81
2022/01/06 08:51:42;;;;;;;19.97;4.53;;;6.00;99.90;;;;;;4898819;29;20165;-80
2022/01/06 08:54:08;;;;;;;16.47;5.70;;;6.10;99.90;;;;;;4897592;29;20173;-80
2022/01/06 08:56:37;;;;;;;14.70;4.63;;;6.00;99.90;;;;;;4897494;29;20260;-80
2022/01/06 08:59:04;;;;;;;18.53;5.00;;;6.10;99.90;;;;;;4898428;29;20218;-79
2022/01/06 09:01:30;;;;;;;21.17;5.37;;;6.00;99.90;;;;;;4898530;29;20174;-79
2022/01/06 09:03:56;;;;;;;14.73;5.40;;;6.00;99.90;;;;;;4898068;29;20220;-80
2022/01/06 09:06:21;;;;;;;15.50;4.33;;;6.00;99.90;;;;;;4898640;29;20685;-80
2022/01/06 09:08:47;;;;;;;15.07;4.20;;;6.10;99.90;;;;;;4897116;29;20193;-80
2022/01/06 09:11:13;;;;;;;19.10;3.70;;;6.20;99.90;;;;;;4898600;29;20252;-80
2022/01/06 09:13:39;;;;;;;14.67;4.03;;;6.20;99.90;;;;;;4897096;29;20181;-79
2022/01/06 09:16:08;;;;;;;18.07;4.10;;;6.10;99.90;;;;;;4898544;29;20169;-80
2022/01/06 09:18:34;;;;;;;13.33;3.87;;;6.10;99.90;;;;;;4896582;29;20204;-79
2022/01/06 09:21:00;;;;;;;14.67;4.37;;;6.10;99.90;;;;;;4898299;29;20165;-80
2022/01/06 09:23:26;;;;;;;20.83;4.37;;;6.10;99.90;;;;;;4898212;29;20173;-80
2022/01/06 09:25:51;;;;;;;14.63;3.50;;;6.20;99.90;;;;;;4898169;29;20645;-80
2022/01/06 09:28:17;;;;;;;12.10;3.93;;;6.40;99.90;;;;;;4898018;29;20217;-80
2022/01/06 09:30:43;;;;;;;21.90;3.70;;;6.50;99.90;;;;;;4898021;29;20177;-80
2022/01/06 09:33:08;;;;;;;13.00;3.93;;;6.60;99.90;;;;;;4897781;29;20192;-80
2022/01/06 09:35:34;;;;;;;16.10;3.53;;;6.60;99.90;;;;;;4898512;29;20201;-87
2022/01/06 09:38:00;;;;;;;10.10;3.37;;;6.70;99.90;;;;;;4899046;29;20521;-85
2022/01/06 09:40:26;;;;;;;14.17;2.97;;;6.70;99.90;;;;;;4897675;29;20177;-87
2022/01/06 09:42:53;;;;;;;12.93;3.60;;;6.80;99.90;;;;;;4897856;29;20541;-85
2022/01/06 09:45:20;;;;;;;14.10;2.80;;;6.80;99.90;;;;;;4897349;29;20180;-85
2022/01/06 09:47:46;;;;;;;14.77;3.87;;;6.80;99.90;;;;;;4888911;29;20583;-88
2022/01/06 09:50:13;;;;;;;13.50;3.10;;;6.80;99.90;;;;;;4885657;29;20584;-87
2022/01/06 09:52:39;;;;;;;9.33;3.03;;;6.80;99.90;;;;;;4898513;29;20193;-86
2022/01/06 09:55:06;;;;;;;13.77;3.20;;;6.80;99.90;;;;;;4897247;29;20207;-87
2022/01/06 09:57:31;;;;;;;16.40;4.47;;;6.80;99.90;;;;;;4898651;29;20177;-87
2022/01/06 09:59:57;;;;;;;17.37;4.90;;;6.90;99.90;;;;;;4898353;29;20276;-86
2022/01/06 10:02:33;;;;;;;12.13;4.80;;;7.10;99.90;;;;;;4898110;29;20219;-86
2022/01/06 10:04:59;;;;;;;13.43;3.97;;;7.20;99.90;;;;;;4897034;29;20184;-87
2022/01/06 10:07:25;;;;;;;13.60;4.17;;;7.20;99.90;;;;;;4898358;29;20205;-86
2022/01/06 10:09:51;;;;;;;16.07;5.00;;;7.20;99.90;;;;;;4897385;29;20193;-85
2022/01/06 10:12:16;;;;;;;12.33;3.60;;;7.30;99.90;;;;;;4896427;29;20425;-86
2022/01/06 10:14:46;;;;;;;14.47;3.90;;;7.40;99.90;;;;;;4916805;29;20179;-86
2022/01/06 10:17:17;;;;;;;19.27;3.93;;;7.40;99.90;;;;;;4905687;29;20752;-83
2022/01/06 10:19:44;;;;;;;9.87;3.70;;;7.40;99.90;;;;;;4890713;29;20228;-84
2022/01/06 10:22:16;;;;;;;13.60;4.27;;;7.40;99.90;;;;;;4893476;29;20657;-85
2022/01/06 10:24:44;;;;;;;15.70;4.40;;;7.50;99.90;;;;;;4877829;29;20182;-87
2022/01/06 10:27:11;;;;;;;14.60;5.13;;;7.60;99.90;;;;;;4879224;29;20198;-86
2022/01/06 10:29:38;;;;;;;15.97;5.03;;;7.70;99.90;;;;;;4877999;29;20632;-85
2022/01/06 10:32:06;;;;;;;16.00;5.03;;;7.80;99.90;;;;;;4877704;29;20214;-87
2022/01/06 10:34:34;;;;;;;14.73;5.13;;;7.90;99.90;;;;;;4878383;29;20608;-85
2022/01/06 10:37:15;;;;;;;15.60;5.60;;;7.90;99.90;;;;;;4878154;29;20182;-84
2022/01/06 10:39:46;;;;;;;19.47;6.07;;;8.00;99.90;;;;;;4891824;29;20209;-85
2022/01/06 10:42:12;;;;;;;16.93;6.53;;;7.90;99.90;;;;;;4877560;29;20174;-88
2022/01/06 10:44:50;;;;;;;17.73;6.07;;;7.70;99.90;;;;;;4879040;29;20175;-85
2022/01/06 10:47:32;;;;;;;19.37;6.80;;;7.80;99.90;;;;;;4878216;29;20220;-85
2022/01/06 10:50:10;;;;;;;21.87;7.17;;;7.70;99.90;;;;;;4893760;29;20593;-86
2022/01/06 10:52:37;;;;;;;17.90;6.50;;;7.80;99.90;;;;;;4893962;29;20243;-85
2022/01/06 10:55:33;;;;;;;24.63;7.20;;;7.80;99.90;;;;;;4879394;29;20185;-83
2022/01/06 10:58:08;;;;;;;14.67;6.67;;;7.90;99.90;;;;;;4879366;29;20671;-86
2022/01/06 11:00:34;;;;;;;20.77;6.90;;;7.90;99.90;;;;;;4877865;29;20181;-85
2022/01/06 11:03:06;;;;;;;18.67;7.13;;;7.80;99.90;;;;;;4879215;29;20193;-87
2022/01/06 11:05:37;;;;;;;21.03;7.33;;;7.70;99.90;;;;;;4893592;29;20330;-86
2022/01/06 11:08:04;;;;;;;22.63;8.20;;;7.80;99.90;;;;;;4879096;29;20201;-87
2022/01/06 11:10:32;;;;;;;19.33;6.93;;;7.90;99.90;;;;;;4877965;29;20639;-86
2022/01/06 11:12:58;;;;;;;27.10;7.43;;;8.10;99.90;;;;;;4879231;29;20177;-86
2022/01/06 11:15:24;;;;;;;18.97;6.40;;;8.30;99.90;;;;;;4877974;29;20184;-86
2022/01/06 11:17:51;;;;;;;17.23;6.93;;;8.30;99.90;;;;;;4877941;29;20588;-84
2022/01/06 11:20:25;;;;;;;19.30;6.10;;;8.10;99.90;;;;;;4878323;29;20197;-86
2022/01/06 11:22:53;;;;;;;21.53;7.20;;;8.10;99.90;;;;;;4882359;29;20176;-85
2022/01/06 11:25:38;;;;;;;20.80;6.83;;;8.00;99.90;;;;;;4881591;29;20174;-87
2022/01/06 11:28:08;;;;;;;22.93;7.77;;;8.10;99.90;;;;;;4880971;29;20237;-84
2022/01/06 11:30:43;;;;;;;18.90;6.40;;;8.10;99.90;;;;;;4882436;29;20162;-87
2022/01/06 11:33:10;;;;;;;18.87;6.33;;;8.30;99.90;;;;;;4882858;29;20179;-86
2022/01/06 11:35:54;;;;;;;21.53;5.80;;;8.90;99.90;;;;;;4882438;29;20196;-85
2022/01/06 11:38:23;;;;;;;18.63;6.53;;;9.30;99.90;;;;;;4881110;29;20243;-85
2022/01/06 11:41:05;;;;;;;20.67;7.30;;;9.50;99.90;;;;;;4882155;29;20561;-85
2022/01/06 11:43:42;;;;;;;18.20;6.70;;;9.80;99.90;;;;;;4881854;29;20221;-89
2022/01/06 11:46:08;;;;;;;19.13;7.17;;;10.70;99.90;;;;;;4882356;29;20516;-85
2022/01/06 11:48:57;;;;;;;16.27;7.17;;;11.30;99.90;;;;;;4881885;29;20202;-87
2022/01/06 11:51:32;;;;;;;16.57;6.67;;;12.10;99.90;;;;;;4881138;29;20178;-86
2022/01/06 11:53:59;;;;;;;18.77;7.77;;;12.30;99.90;;;;;;4880846;29;20258;-87
2022/01/06 11:56:25;;;;;;;15.53;7.20;;;12.70;99.90;;;;;;4881992;29;20627;-87
2022/01/06 11:59:30;;;;;;;20.30;7.20;;;13.00;99.90;;;;;;4880804;29;20182;-87
2022/01/06 12:01:56;;;;;;;17.50;7.13;;;13.40;99.90;;;;;;4895927;29;20212;-86
2022/01/06 12:04:22;;;;;;;13.90;7.00;;;13.80;99.90;;;;;;4881751;29;20198;-85
2022/01/06 12:06:49;;;;;;;18.20;7.90;;;14.10;99.90;;;;;;4880657;29;20861;-86
2022/01/06 12:09:23;;;;;;;19.90;7.27;;;14.40;99.90;;;;;;4880804;29;20199;-87
2022/01/06 12:12:02;;;;;;;15.90;8.57;;;15.10;99.50;;;;;;4880402;29;20172;-86
2022/01/06 12:14:28;;;;;;;18.43;8.80;;;15.80;98.40;;;;;;4896124;29;20188;-86
2022/01/06 12:17:03;;;;;;;21.10;8.43;;;15.90;97.80;;;;;;4881353;29;20174;-86
2022/01/06 12:19:28;;;;;;;20.23;9.30;;;16.00;97.00;;;;;;4880432;29;20206;-86
2022/01/06 12:21:54;;;;;;;20.90;8.27;;;16.20;96.50;;;;;;4881498;29;20158;-86
2022/01/06 12:24:19;;;;;;;18.97;8.23;;;16.20;96.10;;;;;;4881840;29;20178;-87
2022/01/06 12:26:46;;;;;;;19.03;8.17;;;15.90;96.60;;;;;;4880995;29;22059;-85
2022/01/06 12:29:20;;;;;;;16.87;8.53;;;15.90;96.30;;;;;;4880192;29;20203;-86
2022/01/06 12:31:47;;;;;;;23.27;8.53;;;15.50;96.40;;;;;;4880033;29;20226;-86
2022/01/06 12:34:14;;;;;;;17.57;8.10;;;15.00;97.10;;;;;;4880686;29;20187;-84
2022/01/06 12:36:43;;;;;;;19.67;8.67;;;15.10;97.50;;;;;;4880072;29;20271;-85
2022/01/06 12:39:13;;;;;;;20.03;8.17;;;14.50;97.70;;;;;;4880025;29;20182;-84
2022/01/06 12:41:39;;;;;;;21.53;8.37;;;13.30;99.20;;;;;;4880063;29;20628;-84
2022/01/06 12:44:06;;;;;;;22.00;9.10;;;12.40;99.90;;;;;;4881173;29;20230;-85
2022/01/06 12:46:35;;;;;;;18.33;9.53;;;11.80;99.90;;;;;;4881126;29;20170;-86
2022/01/06 12:49:01;;;;;;;22.80;9.80;;;11.50;99.90;;;;;;4880184;29;20193;-84
2022/01/06 12:51:30;;;;;;;27.23;10.27;;;11.10;99.90;;;;;;4880634;29;20177;-84
2022/01/06 12:54:02;;;;;;;24.27;11.07;;;10.60;99.90;;;;;;4880262;29;20246;-85
2022/01/06 12:56:34;;;;;;;25.43;10.87;;;9.70;99.90;;;;;;4880205;29;20649;-85